sensor_id;sensor_type;location;lat;lon;timestamp;P1;durP1;ratioP1;P2;durP2;ratioP2
37379;SDS011;23252;-33.992;18.480;2023-03-01T00:00:05;24.55;;;4.13;;
37379;SDS011;23252;-33.992;18.480;2023-03-01T00:02:32;27.83;;;3.95;;
37379;SDS011;23252;-33.992;18.480;2023-03-01T00:04:59;28.08;;;4.13;;
37379;SDS011;23252;-33.992;18.480;2023-03-01T00:07:25;17.97;;;2.90;;
37379;SDS011;23252;-33.992;18.480;2023-03-01T00:09:52;18.57;;;3.10;;
37379;SDS011;23252;-33.992;18.480;2023-03-01T00:12:19;20.98;;;3.55;;
37379;SDS011;23252;-33.992;18.480;2023-03-01T00:14:46;24.13;;;3.80;;
37379;SDS011;23252;-33.992;18.480;2023-03-01T00:17:12;26.35;;;4.00;;
37379;SDS011;23252;-33.992;18.480;2023-03-01T00:19:39;29.95;;;4.40;;
37379;SDS011;23252;-33.992;18.480;2023-03-01T00:22:05;28.23;;;3.97;;
37379;SDS011;23252;-33.992;18.480;2023-03-01T00:24:32;21.77;;;3.60;;
37379;SDS011;23252;-33.992;18.480;2023-03-01T00:26:58;13.87;;;2.67;;
37379;SDS011;23252;-33.992;18.480;2023-03-01T00:29:25;25.95;;;3.25;;
37379;SDS011;23252;-33.992;18.480;2023-03-01T00:31:51;25.65;;;3.47;;
37379;SDS011;23252;-33.992;18.480;2023-03-01T00:34:18;23.50;;;3.95;;
37379;SDS011;23252;-33.992;18.480;2023-03-01T00:36:45;27.88;;;3.58;;
37379;SDS011;23252;-33.992;18.480;2023-03-01T00:39:12;23.97;;;3.23;;
37379;SDS011;23252;-33.992;18.480;2023-03-01T00:41:40;20.85;;;3.85;;
37379;SDS011;23252;-33.992;18.480;2023-03-01T00:44:07;23.80;;;3.83;;
37379;SDS011;23252;-33.992;18.480;2023-03-01T00:46:34;22.90;;;2.78;;
37379;SDS011;23252;-33.992;18.480;2023-03-01T00:49:01;22.63;;;3.58;;
37379;SDS011;23252;-33.992;18.480;2023-03-01T00:51:29;16.75;;;2.78;;
37379;SDS011;23252;-33.992;18.480;2023-03-01T00:53:58;21.95;;;4.40;;
37379;SDS011;23252;-33.992;18.480;2023-03-01T00:56:25;18.40;;;2.97;;
37379;SDS011;23252;-33.992;18.480;2023-03-01T00:58:52;16.83;;;3.13;;
37379;SDS011;23252;-33.992;18.480;2023-03-01T01:01:20;23.43;;;4.07;;
37379;SDS011;23252;-33.992;18.480;2023-03-01T01:03:49;21.88;;;3.92;;
37379;SDS011;23252;-33.992;18.480;2023-03-01T01:06:19;20.02;;;3.53;;
37379;SDS011;23252;-33.992;18.480;2023-03-01T01:08:47;22.33;;;3.03;;
37379;SDS011;23252;-33.992;18.480;2023-03-01T01:11:15;20.08;;;2.95;;
37379;SDS011;23252;-33.992;18.480;2023-03-01T01:13:43;21.63;;;4.30;;
37379;SDS011;23252;-33.992;18.480;2023-03-01T01:16:11;20.67;;;3.63;;
37379;SDS011;23252;-33.992;18.480;2023-03-01T01:18:38;22.25;;;3.22;;
37379;SDS011;23252;-33.992;18.480;2023-03-01T01:21:09;19.73;;;3.17;;
37379;SDS011;23252;-33.992;18.480;2023-03-01T01:23:39;29.33;;;3.75;;
37379;SDS011;23252;-33.992;18.480;2023-03-01T01:26:07;25.33;;;3.78;;
37379;SDS011;23252;-33.992;18.480;2023-03-01T01:28:45;26.73;;;4.10;;
37379;SDS011;23252;-33.992;18.480;2023-03-01T01:31:12;20.67;;;3.45;;
37379;SDS011;23252;-33.992;18.480;2023-03-01T01:33:40;23.83;;;3.25;;
37379;SDS011;23252;-33.992;18.480;2023-03-01T01:36:07;23.13;;;4.13;;
37379;SDS011;23252;-33.992;18.480;2023-03-01T01:38:34;28.17;;;3.70;;
37379;SDS011;23252;-33.992;18.480;2023-03-01T01:41:01;28.40;;;3.22;;
37379;SDS011;23252;-33.992;18.480;2023-03-01T01:43:29;24.65;;;3.50;;
37379;SDS011;23252;-33.992;18.480;2023-03-01T01:46:04;24.02;;;3.08;;
37379;SDS011;23252;-33.992;18.480;2023-03-01T01:48:44;25.52;;;4.20;;
37379;SDS011;23252;-33.992;18.480;2023-03-01T01:51:17;23.25;;;4.55;;
37379;SDS011;23252;-33.992;18.480;2023-03-01T01:53:48;24.85;;;3.22;;
37379;SDS011;23252;-33.992;18.480;2023-03-01T01:56:20;27.33;;;4.00;;
37379;SDS011;23252;-33.992;18.480;2023-03-01T01:58:49;19.00;;;3.03;;
37379;SDS011;23252;-33.992;18.480;2023-03-01T02:01:16;21.10;;;3.85;;
37379;SDS011;23252;-33.992;18.480;2023-03-01T02:03:43;27.17;;;4.32;;
37379;SDS011;23252;-33.992;18.480;2023-03-01T02:06:12;34.92;;;4.38;;
37379;SDS011;23252;-33.992;18.480;2023-03-01T02:08:41;21.95;;;3.47;;
37379;SDS011;23252;-33.992;18.480;2023-03-01T04:16:36;28.92;;;4.47;;
37379;SDS011;23252;-33.992;18.480;2023-03-01T04:19:03;25.42;;;3.42;;
37379;SDS011;23252;-33.992;18.480;2023-03-01T04:21:31;21.55;;;3.78;;
37379;SDS011;23252;-33.992;18.480;2023-03-01T04:23:58;23.37;;;3.03;;
37379;SDS011;23252;-33.992;18.480;2023-03-01T04:26:24;18.67;;;3.60;;
37379;SDS011;23252;-33.992;18.480;2023-03-01T04:28:52;27.75;;;4.00;;
37379;SDS011;23252;-33.992;18.480;2023-03-01T04:31:18;23.17;;;3.63;;
37379;SDS011;23252;-33.992;18.480;2023-03-01T04:33:47;31.98;;;4.38;;
37379;SDS011;23252;-33.992;18.480;2023-03-01T04:36:16;28.90;;;3.72;;
37379;SDS011;23252;-33.992;18.480;2023-03-01T04:38:45;26.38;;;4.85;;
37379;SDS011;23252;-33.992;18.480;2023-03-01T04:41:13;25.88;;;3.72;;
37379;SDS011;23252;-33.992;18.480;2023-03-01T04:43:41;26.38;;;3.65;;
37379;SDS011;23252;-33.992;18.480;2023-03-01T04:46:09;22.00;;;3.58;;
37379;SDS011;23252;-33.992;18.480;2023-03-01T04:48:39;20.70;;;3.38;;
37379;SDS011;23252;-33.992;18.480;2023-03-01T04:51:06;26.00;;;3.72;;
37379;SDS011;23252;-33.992;18.480;2023-03-01T04:53:34;25.52;;;3.20;;
37379;SDS011;23252;-33.992;18.480;2023-03-01T04:56:03;22.33;;;3.25;;
37379;SDS011;23252;-33.992;18.480;2023-03-01T04:58:31;29.55;;;3.95;;
37379;SDS011;23252;-33.992;18.480;2023-03-01T05:00:58;25.90;;;3.85;;
37379;SDS011;23252;-33.992;18.480;2023-03-01T05:03:24;18.52;;;3.88;;
37379;SDS011;23252;-33.992;18.480;2023-03-01T05:05:51;21.43;;;3.40;;
37379;SDS011;23252;-33.992;18.480;2023-03-01T05:08:18;26.10;;;4.10;;
37379;SDS011;23252;-33.992;18.480;2023-03-01T05:10:50;25.83;;;3.90;;
37379;SDS011;23252;-33.992;18.480;2023-03-01T05:13:17;26.98;;;3.35;;
37379;SDS011;23252;-33.992;18.480;2023-03-01T05:15:49;29.27;;;4.20;;
37379;SDS011;23252;-33.992;18.480;2023-03-01T05:18:20;25.80;;;4.78;;
37379;SDS011;23252;-33.992;18.480;2023-03-01T05:20:54;30.05;;;3.78;;
37379;SDS011;23252;-33.992;18.480;2023-03-01T05:23:26;25.33;;;3.95;;
37379;SDS011;23252;-33.992;18.480;2023-03-01T05:25:53;25.45;;;4.07;;
37379;SDS011;23252;-33.992;18.480;2023-03-01T05:28:20;27.40;;;4.70;;
37379;SDS011;23252;-33.992;18.480;2023-03-01T05:30:46;27.73;;;4.77;;
37379;SDS011;23252;-33.992;18.480;2023-03-01T05:33:16;21.33;;;3.72;;
37379;SDS011;23252;-33.992;18.480;2023-03-01T05:35:44;26.10;;;3.85;;
37379;SDS011;23252;-33.992;18.480;2023-03-01T05:38:11;24.13;;;4.38;;
37379;SDS011;23252;-33.992;18.480;2023-03-01T05:40:38;26.27;;;4.05;;
37379;SDS011;23252;-33.992;18.480;2023-03-01T05:43:06;26.92;;;5.30;;
37379;SDS011;23252;-33.992;18.480;2023-03-01T05:45:41;24.25;;;4.85;;
37379;SDS011;23252;-33.992;18.480;2023-03-01T05:50:38;17.38;;;3.45;;
37379;SDS011;23252;-33.992;18.480;2023-03-01T05:53:12;21.77;;;4.30;;
37379;SDS011;23252;-33.992;18.480;2023-03-01T05:55:40;24.77;;;4.35;;
37379;SDS011;23252;-33.992;18.480;2023-03-01T05:58:10;26.48;;;4.05;;
37379;SDS011;23252;-33.992;18.480;2023-03-01T06:00:39;23.20;;;3.78;;
37379;SDS011;23252;-33.992;18.480;2023-03-01T06:03:06;21.23;;;3.35;;
37379;SDS011;23252;-33.992;18.480;2023-03-01T06:05:35;25.50;;;3.72;;
37379;SDS011;23252;-33.992;18.480;2023-03-01T06:08:02;23.55;;;3.35;;
37379;SDS011;23252;-33.992;18.480;2023-03-01T06:10:29;23.60;;;3.60;;
37379;SDS011;23252;-33.992;18.480;2023-03-01T06:12:58;21.83;;;4.13;;
37379;SDS011;23252;-33.992;18.480;2023-03-01T06:15:25;26.35;;;4.28;;
37379;SDS011;23252;-33.992;18.480;2023-03-01T06:17:53;25.95;;;4.07;;
37379;SDS011;23252;-33.992;18.480;2023-03-01T06:20:23;27.48;;;4.13;;
37379;SDS011;23252;-33.992;18.480;2023-03-01T06:22:51;25.98;;;4.38;;
37379;SDS011;23252;-33.992;18.480;2023-03-01T06:25:19;24.38;;;4.10;;
37379;SDS011;23252;-33.992;18.480;2023-03-01T06:27:47;18.80;;;3.97;;
37379;SDS011;23252;-33.992;18.480;2023-03-01T06:30:15;25.13;;;4.15;;
37379;SDS011;23252;-33.992;18.480;2023-03-01T06:32:43;20.98;;;3.38;;
37379;SDS011;23252;-33.992;18.480;2023-03-01T06:35:10;24.30;;;4.32;;
37379;SDS011;23252;-33.992;18.480;2023-03-01T06:37:38;21.50;;;3.85;;
37379;SDS011;23252;-33.992;18.480;2023-03-01T06:40:06;23.13;;;4.32;;
37379;SDS011;23252;-33.992;18.480;2023-03-01T06:42:34;23.20;;;3.20;;
37379;SDS011;23252;-33.992;18.480;2023-03-01T06:47:28;25.00;;;3.88;;
37379;SDS011;23252;-33.992;18.480;2023-03-01T06:49:54;22.58;;;3.30;;
37379;SDS011;23252;-33.992;18.480;2023-03-01T06:52:21;22.33;;;4.33;;
37379;SDS011;23252;-33.992;18.480;2023-03-01T06:54:47;32.43;;;4.47;;
37379;SDS011;23252;-33.992;18.480;2023-03-01T06:57:14;19.80;;;4.05;;
37379;SDS011;23252;-33.992;18.480;2023-03-01T06:59:40;23.63;;;3.97;;
37379;SDS011;23252;-33.992;18.480;2023-03-01T07:02:09;27.73;;;4.38;;
37379;SDS011;23252;-33.992;18.480;2023-03-01T07:04:40;27.48;;;4.13;;
37379;SDS011;23252;-33.992;18.480;2023-03-01T07:07:07;28.48;;;4.18;;
37379;SDS011;23252;-33.992;18.480;2023-03-01T07:09:34;34.90;;;4.22;;
37379;SDS011;23252;-33.992;18.480;2023-03-01T07:12:01;17.80;;;4.30;;
37379;SDS011;23252;-33.992;18.480;2023-03-01T07:14:28;29.15;;;5.45;;
37379;SDS011;23252;-33.992;18.480;2023-03-01T07:16:54;31.20;;;5.40;;
37379;SDS011;23252;-33.992;18.480;2023-03-01T07:19:24;25.05;;;4.07;;
37379;SDS011;23252;-33.992;18.480;2023-03-01T07:21:56;30.48;;;3.85;;
37379;SDS011;23252;-33.992;18.480;2023-03-01T07:24:22;21.63;;;4.65;;
37379;SDS011;23252;-33.992;18.480;2023-03-01T07:26:49;25.35;;;3.88;;
37379;SDS011;23252;-33.992;18.480;2023-03-01T07:29:17;23.10;;;4.68;;
37379;SDS011;23252;-33.992;18.480;2023-03-01T07:31:43;27.05;;;4.57;;
37379;SDS011;23252;-33.992;18.480;2023-03-01T07:34:10;22.65;;;3.53;;
37379;SDS011;23252;-33.992;18.480;2023-03-01T07:36:37;29.52;;;4.13;;
37379;SDS011;23252;-33.992;18.480;2023-03-01T07:39:04;26.35;;;4.60;;
37379;SDS011;23252;-33.992;18.480;2023-03-01T07:41:31;19.23;;;3.42;;
37379;SDS011;23252;-33.992;18.480;2023-03-01T07:43:57;24.35;;;4.28;;
37379;SDS011;23252;-33.992;18.480;2023-03-01T07:46:24;26.98;;;3.85;;
37379;SDS011;23252;-33.992;18.480;2023-03-01T07:48:50;28.15;;;3.85;;
37379;SDS011;23252;-33.992;18.480;2023-03-01T07:51:17;29.60;;;3.73;;
37379;SDS011;23252;-33.992;18.480;2023-03-01T07:53:47;24.80;;;4.38;;
37379;SDS011;23252;-33.992;18.480;2023-03-01T07:56:14;24.55;;;3.97;;
37379;SDS011;23252;-33.992;18.480;2023-03-01T07:58:43;25.60;;;4.00;;
37379;SDS011;23252;-33.992;18.480;2023-03-01T08:03:38;26.35;;;4.82;;
37379;SDS011;23252;-33.992;18.480;2023-03-01T08:06:05;24.40;;;3.97;;
37379;SDS011;23252;-33.992;18.480;2023-03-01T08:08:33;23.40;;;3.20;;
37379;SDS011;23252;-33.992;18.480;2023-03-01T08:11:02;24.45;;;3.95;;
37379;SDS011;23252;-33.992;18.480;2023-03-01T08:13:29;28.05;;;3.88;;
37379;SDS011;23252;-33.992;18.480;2023-03-01T08:16:06;26.77;;;3.90;;
37379;SDS011;23252;-33.992;18.480;2023-03-01T08:18:35;19.98;;;4.75;;
37379;SDS011;23252;-33.992;18.480;2023-03-01T08:21:10;22.17;;;4.13;;
37379;SDS011;23252;-33.992;18.480;2023-03-01T08:23:38;24.23;;;3.93;;
37379;SDS011;23252;-33.992;18.480;2023-03-01T08:26:12;20.08;;;3.13;;
37379;SDS011;23252;-33.992;18.480;2023-03-01T08:28:41;25.02;;;3.95;;
37379;SDS011;23252;-33.992;18.480;2023-03-01T08:31:15;20.75;;;4.13;;
37379;SDS011;23252;-33.992;18.480;2023-03-01T08:33:42;26.88;;;4.95;;
37379;SDS011;23252;-33.992;18.480;2023-03-01T08:36:09;27.98;;;3.75;;
37379;SDS011;23252;-33.992;18.480;2023-03-01T08:38:35;27.45;;;5.10;;
37379;SDS011;23252;-33.992;18.480;2023-03-01T08:41:02;26.85;;;4.63;;
37379;SDS011;23252;-33.992;18.480;2023-03-01T08:43:29;31.60;;;4.70;;
37379;SDS011;23252;-33.992;18.480;2023-03-01T08:45:56;21.15;;;3.80;;
37379;SDS011;23252;-33.992;18.480;2023-03-01T08:48:22;23.25;;;3.33;;
37379;SDS011;23252;-33.992;18.480;2023-03-01T08:50:49;27.35;;;4.28;;
37379;SDS011;23252;-33.992;18.480;2023-03-01T08:53:16;23.38;;;3.75;;
37379;SDS011;23252;-33.992;18.480;2023-03-01T08:55:42;26.67;;;3.88;;
37379;SDS011;23252;-33.992;18.480;2023-03-01T08:58:09;27.98;;;3.53;;
37379;SDS011;23252;-33.992;18.480;2023-03-01T09:00:35;23.50;;;3.85;;
37379;SDS011;23252;-33.992;18.480;2023-03-01T09:03:03;19.88;;;3.28;;
37379;SDS011;23252;-33.992;18.480;2023-03-01T09:05:33;22.20;;;3.85;;
37379;SDS011;23252;-33.992;18.480;2023-03-01T09:08:01;21.40;;;3.75;;
37379;SDS011;23252;-33.992;18.480;2023-03-01T09:10:28;16.65;;;3.97;;
37379;SDS011;23252;-33.992;18.480;2023-03-01T09:12:55;21.65;;;3.55;;
37379;SDS011;23252;-33.992;18.480;2023-03-01T09:15:21;25.83;;;3.47;;
37379;SDS011;23252;-33.992;18.480;2023-03-01T09:17:47;27.40;;;4.15;;
37379;SDS011;23252;-33.992;18.480;2023-03-01T09:20:14;20.00;;;3.60;;
37379;SDS011;23252;-33.992;18.480;2023-03-01T09:22:41;24.60;;;4.05;;
37379;SDS011;23252;-33.992;18.480;2023-03-01T09:25:07;20.50;;;3.35;;
37379;SDS011;23252;-33.992;18.480;2023-03-01T09:27:34;19.42;;;2.90;;
37379;SDS011;23252;-33.992;18.480;2023-03-01T09:30:01;18.48;;;4.05;;
37379;SDS011;23252;-33.992;18.480;2023-03-01T09:32:29;21.70;;;3.60;;
37379;SDS011;23252;-33.992;18.480;2023-03-01T09:34:56;25.42;;;4.45;;
37379;SDS011;23252;-33.992;18.480;2023-03-01T09:37:32;21.80;;;4.60;;
37379;SDS011;23252;-33.992;18.480;2023-03-01T09:40:00;21.00;;;4.30;;
37379;SDS011;23252;-33.992;18.480;2023-03-01T09:42:29;21.92;;;3.83;;
37379;SDS011;23252;-33.992;18.480;2023-03-01T09:45:00;19.92;;;3.13;;
37379;SDS011;23252;-33.992;18.480;2023-03-01T09:47:30;19.55;;;4.00;;
37379;SDS011;23252;-33.992;18.480;2023-03-01T09:55:43;22.50;;;3.97;;
37379;SDS011;23252;-33.992;18.480;2023-03-01T09:58:31;25.52;;;4.32;;
37379;SDS011;23252;-33.992;18.480;2023-03-01T10:04:45;21.10;;;4.30;;
37379;SDS011;23252;-33.992;18.480;2023-03-01T10:09:37;21.17;;;4.13;;
37379;SDS011;23252;-33.992;18.480;2023-03-01T10:12:10;22.80;;;3.42;;
37379;SDS011;23252;-33.992;18.480;2023-03-01T10:20:15;21.85;;;4.25;;
37379;SDS011;23252;-33.992;18.480;2023-03-01T10:22:42;21.60;;;4.20;;
37379;SDS011;23252;-33.992;18.480;2023-03-01T10:25:15;21.25;;;3.53;;
37379;SDS011;23252;-33.992;18.480;2023-03-01T10:27:53;20.40;;;3.17;;
37379;SDS011;23252;-33.992;18.480;2023-03-01T10:30:35;19.75;;;3.60;;
37379;SDS011;23252;-33.992;18.480;2023-03-01T10:33:40;20.73;;;5.85;;
37379;SDS011;23252;-33.992;18.480;2023-03-01T10:36:03;26.58;;;4.50;;
37379;SDS011;23252;-33.992;18.480;2023-03-01T10:38:47;19.77;;;3.60;;
37379;SDS011;23252;-33.992;18.480;2023-03-01T10:41:24;20.85;;;3.55;;
37379;SDS011;23252;-33.992;18.480;2023-03-01T10:43:53;22.35;;;3.92;;
37379;SDS011;23252;-33.992;18.480;2023-03-01T10:46:26;15.35;;;3.25;;
37379;SDS011;23252;-33.992;18.480;2023-03-01T10:51:38;24.02;;;4.40;;
37379;SDS011;23252;-33.992;18.480;2023-03-01T10:54:08;19.70;;;3.78;;
37379;SDS011;23252;-33.992;18.480;2023-03-01T10:56:55;17.58;;;3.53;;
37379;SDS011;23252;-33.992;18.480;2023-03-01T10:59:28;17.15;;;3.15;;
37379;SDS011;23252;-33.992;18.480;2023-03-01T11:04:38;21.17;;;3.65;;
37379;SDS011;23252;-33.992;18.480;2023-03-01T11:07:07;20.25;;;3.20;;
37379;SDS011;23252;-33.992;18.480;2023-03-01T11:09:33;21.83;;;3.25;;
37379;SDS011;23252;-33.992;18.480;2023-03-01T11:12:04;18.70;;;2.88;;
37379;SDS011;23252;-33.992;18.480;2023-03-01T11:14:38;17.10;;;3.10;;
37379;SDS011;23252;-33.992;18.480;2023-03-01T11:17:30;27.83;;;3.47;;
37379;SDS011;23252;-33.992;18.480;2023-03-01T11:22:36;21.48;;;3.30;;
37379;SDS011;23252;-33.992;18.480;2023-03-01T11:25:08;24.58;;;4.03;;
37379;SDS011;23252;-33.992;18.480;2023-03-01T11:27:43;20.08;;;3.97;;
37379;SDS011;23252;-33.992;18.480;2023-03-01T11:33:24;19.55;;;3.20;;
37379;SDS011;23252;-33.992;18.480;2023-03-01T11:36:05;19.08;;;3.13;;
37379;SDS011;23252;-33.992;18.480;2023-03-01T11:38:48;17.25;;;2.70;;
37379;SDS011;23252;-33.992;18.480;2023-03-01T11:41:31;20.23;;;3.25;;
37379;SDS011;23252;-33.992;18.480;2023-03-01T11:44:09;14.52;;;2.67;;
37379;SDS011;23252;-33.992;18.480;2023-03-01T11:47:03;18.63;;;4.32;;
37379;SDS011;23252;-33.992;18.480;2023-03-01T12:31:39;20.20;;;3.20;;
37379;SDS011;23252;-33.992;18.480;2023-03-01T12:42:35;17.08;;;3.25;;
37379;SDS011;23252;-33.992;18.480;2023-03-01T12:51:34;24.33;;;4.10;;
37379;SDS011;23252;-33.992;18.480;2023-03-01T12:54:10;20.05;;;3.55;;
37379;SDS011;23252;-33.992;18.480;2023-03-01T12:56:47;17.15;;;2.75;;
37379;SDS011;23252;-33.992;18.480;2023-03-01T13:20:18;20.92;;;2.92;;
37379;SDS011;23252;-33.992;18.480;2023-03-01T13:22:46;20.02;;;3.60;;
37379;SDS011;23252;-33.992;18.480;2023-03-01T13:25:26;18.02;;;3.28;;
37379;SDS011;23252;-33.992;18.480;2023-03-01T13:27:52;13.20;;;2.78;;
37379;SDS011;23252;-33.992;18.480;2023-03-01T13:30:57;17.35;;;3.65;;
37379;SDS011;23252;-33.992;18.480;2023-03-01T13:35:54;22.25;;;3.50;;
37379;SDS011;23252;-33.992;18.480;2023-03-01T13:38:38;13.23;;;2.85;;
37379;SDS011;23252;-33.992;18.480;2023-03-01T13:41:06;20.05;;;4.00;;
37379;SDS011;23252;-33.992;18.480;2023-03-01T13:43:37;17.98;;;3.40;;
37379;SDS011;23252;-33.992;18.480;2023-03-01T13:49:16;20.83;;;3.58;;
37379;SDS011;23252;-33.992;18.480;2023-03-01T13:51:49;20.98;;;3.85;;
37379;SDS011;23252;-33.992;18.480;2023-03-01T13:54:25;16.98;;;2.95;;
37379;SDS011;23252;-33.992;18.480;2023-03-01T13:56:55;13.73;;;2.70;;
37379;SDS011;23252;-33.992;18.480;2023-03-01T13:59:24;18.13;;;3.28;;
37379;SDS011;23252;-33.992;18.480;2023-03-01T14:02:00;23.35;;;3.38;;
37379;SDS011;23252;-33.992;18.480;2023-03-01T14:04:28;17.58;;;3.25;;
37379;SDS011;23252;-33.992;18.480;2023-03-01T14:07:11;17.58;;;2.97;;
37379;SDS011;23252;-33.992;18.480;2023-03-01T14:09:39;17.27;;;2.88;;
37379;SDS011;23252;-33.992;18.480;2023-03-01T14:15:00;14.43;;;2.95;;
37379;SDS011;23252;-33.992;18.480;2023-03-01T14:17:37;19.27;;;3.45;;
37379;SDS011;23252;-33.992;18.480;2023-03-01T14:20:28;18.17;;;3.28;;
37379;SDS011;23252;-33.992;18.480;2023-03-01T14:23:01;15.35;;;3.20;;
37379;SDS011;23252;-33.992;18.480;2023-03-01T14:28:03;17.77;;;2.65;;
37379;SDS011;23252;-33.992;18.480;2023-03-01T14:30:31;21.80;;;3.20;;
37379;SDS011;23252;-33.992;18.480;2023-03-01T14:33:00;13.52;;;2.70;;
37379;SDS011;23252;-33.992;18.480;2023-03-01T14:35:29;16.13;;;3.35;;
37379;SDS011;23252;-33.992;18.480;2023-03-01T14:37:59;16.90;;;2.97;;
37379;SDS011;23252;-33.992;18.480;2023-03-01T14:40:30;18.80;;;2.65;;
37379;SDS011;23252;-33.992;18.480;2023-03-01T14:43:00;17.02;;;3.25;;
37379;SDS011;23252;-33.992;18.480;2023-03-01T14:45:33;15.82;;;3.50;;
37379;SDS011;23252;-33.992;18.480;2023-03-01T14:48:01;23.92;;;3.70;;
37379;SDS011;23252;-33.992;18.480;2023-03-01T14:50:32;17.83;;;3.47;;
37379;SDS011;23252;-33.992;18.480;2023-03-01T14:53:06;19.73;;;2.88;;
37379;SDS011;23252;-33.992;18.480;2023-03-01T14:55:44;14.20;;;2.78;;
37379;SDS011;23252;-33.992;18.480;2023-03-01T14:58:15;20.25;;;3.95;;
37379;SDS011;23252;-33.992;18.480;2023-03-01T15:00:50;20.58;;;3.63;;
37379;SDS011;23252;-33.992;18.480;2023-03-01T15:05:51;24.75;;;3.90;;
37379;SDS011;23252;-33.992;18.480;2023-03-01T15:08:20;17.50;;;3.08;;
37379;SDS011;23252;-33.992;18.480;2023-03-01T15:11:24;20.98;;;3.20;;
37379;SDS011;23252;-33.992;18.480;2023-03-01T15:13:47;17.23;;;3.67;;
37379;SDS011;23252;-33.992;18.480;2023-03-01T15:16:33;18.20;;;4.13;;
37379;SDS011;23252;-33.992;18.480;2023-03-01T15:19:06;15.40;;;3.15;;
37379;SDS011;23252;-33.992;18.480;2023-03-01T15:21:36;23.73;;;3.75;;
37379;SDS011;23252;-33.992;18.480;2023-03-01T15:24:13;19.65;;;3.05;;
37379;SDS011;23252;-33.992;18.480;2023-03-01T15:26:53;17.65;;;3.17;;
37379;SDS011;23252;-33.992;18.480;2023-03-01T15:29:23;18.17;;;3.92;;
37379;SDS011;23252;-33.992;18.480;2023-03-01T15:31:56;23.45;;;3.60;;
37379;SDS011;23252;-33.992;18.480;2023-03-01T15:34:58;16.92;;;3.45;;
37379;SDS011;23252;-33.992;18.480;2023-03-01T15:40:24;24.20;;;3.08;;
37379;SDS011;23252;-33.992;18.480;2023-03-01T15:42:57;25.00;;;3.90;;
37379;SDS011;23252;-33.992;18.480;2023-03-01T15:45:26;20.77;;;3.63;;
37379;SDS011;23252;-33.992;18.480;2023-03-01T15:47:58;25.80;;;4.30;;
37379;SDS011;23252;-33.992;18.480;2023-03-01T15:50:32;18.67;;;3.08;;
37379;SDS011;23252;-33.992;18.480;2023-03-01T15:53:03;23.48;;;4.07;;
37379;SDS011;23252;-33.992;18.480;2023-03-01T15:55:32;15.75;;;2.83;;
37379;SDS011;23252;-33.992;18.480;2023-03-01T15:58:18;23.67;;;3.20;;
37379;SDS011;23252;-33.992;18.480;2023-03-01T16:00:48;23.50;;;3.60;;
37379;SDS011;23252;-33.992;18.480;2023-03-01T16:03:21;17.20;;;3.72;;
37379;SDS011;23252;-33.992;18.480;2023-03-01T20:16:46;33.25;;;5.97;;
37379;SDS011;23252;-33.992;18.480;2023-03-01T20:19:13;34.55;;;6.43;;
37379;SDS011;23252;-33.992;18.480;2023-03-01T20:21:39;45.77;;;6.57;;
37379;SDS011;23252;-33.992;18.480;2023-03-01T20:24:06;28.10;;;5.80;;
37379;SDS011;23252;-33.992;18.480;2023-03-01T20:26:33;28.48;;;5.18;;
37379;SDS011;23252;-33.992;18.480;2023-03-01T20:28:59;27.60;;;5.10;;
37379;SDS011;23252;-33.992;18.480;2023-03-01T20:31:26;31.70;;;5.57;;
37379;SDS011;23252;-33.992;18.480;2023-03-01T20:33:57;33.50;;;6.93;;
37379;SDS011;23252;-33.992;18.480;2023-03-01T20:36:25;31.65;;;6.88;;
37379;SDS011;23252;-33.992;18.480;2023-03-01T20:38:52;25.50;;;6.00;;
37379;SDS011;23252;-33.992;18.480;2023-03-01T20:41:20;32.92;;;6.03;;
37379;SDS011;23252;-33.992;18.480;2023-03-01T20:43:50;41.05;;;6.13;;
37379;SDS011;23252;-33.992;18.480;2023-03-01T20:46:21;33.42;;;5.57;;
37379;SDS011;23252;-33.992;18.480;2023-03-01T20:48:49;31.23;;;6.38;;
37379;SDS011;23252;-33.992;18.480;2023-03-01T20:51:16;37.53;;;6.72;;
37379;SDS011;23252;-33.992;18.480;2023-03-01T20:53:43;35.72;;;6.80;;
37379;SDS011;23252;-33.992;18.480;2023-03-01T20:56:12;31.50;;;5.72;;
37379;SDS011;23252;-33.992;18.480;2023-03-01T20:58:39;26.80;;;5.03;;
37379;SDS011;23252;-33.992;18.480;2023-03-01T21:01:07;27.35;;;4.60;;
37379;SDS011;23252;-33.992;18.480;2023-03-01T21:03:36;26.23;;;5.40;;
37379;SDS011;23252;-33.992;18.480;2023-03-01T21:06:03;32.75;;;5.90;;
37379;SDS011;23252;-33.992;18.480;2023-03-01T21:08:30;26.80;;;4.85;;
37379;SDS011;23252;-33.992;18.480;2023-03-01T21:10:57;23.05;;;4.53;;
37379;SDS011;23252;-33.992;18.480;2023-03-01T21:13:24;34.65;;;5.85;;
37379;SDS011;23252;-33.992;18.480;2023-03-01T21:15:54;28.13;;;4.95;;
37379;SDS011;23252;-33.992;18.480;2023-03-01T21:18:27;24.05;;;4.72;;
37379;SDS011;23252;-33.992;18.480;2023-03-01T21:20:58;27.00;;;4.35;;
37379;SDS011;23252;-33.992;18.480;2023-03-01T21:23:27;30.52;;;4.88;;
37379;SDS011;23252;-33.992;18.480;2023-03-01T21:31:02;25.17;;;5.00;;
37379;SDS011;23252;-33.992;18.480;2023-03-01T21:33:30;31.50;;;5.95;;
37379;SDS011;23252;-33.992;18.480;2023-03-01T21:36:00;29.20;;;4.72;;
37379;SDS011;23252;-33.992;18.480;2023-03-01T21:38:30;31.83;;;6.35;;
37379;SDS011;23252;-33.992;18.480;2023-03-01T21:41:03;30.00;;;5.85;;
37379;SDS011;23252;-33.992;18.480;2023-03-01T21:43:30;28.60;;;5.93;;
37379;SDS011;23252;-33.992;18.480;2023-03-01T21:45:59;33.65;;;6.43;;
37379;SDS011;23252;-33.992;18.480;2023-03-01T21:48:27;33.13;;;6.38;;
37379;SDS011;23252;-33.992;18.480;2023-03-01T21:50:55;29.25;;;5.15;;
37379;SDS011;23252;-33.992;18.480;2023-03-01T21:53:22;26.88;;;5.20;;
37379;SDS011;23252;-33.992;18.480;2023-03-01T21:58:16;40.13;;;5.30;;
37379;SDS011;23252;-33.992;18.480;2023-03-01T22:00:44;31.77;;;5.85;;
37379;SDS011;23252;-33.992;18.480;2023-03-01T22:03:11;33.10;;;5.45;;
37379;SDS011;23252;-33.992;18.480;2023-03-01T22:05:38;30.17;;;6.28;;
37379;SDS011;23252;-33.992;18.480;2023-03-01T22:08:05;25.87;;;4.47;;
37379;SDS011;23252;-33.992;18.480;2023-03-01T22:10:32;32.42;;;5.35;;
37379;SDS011;23252;-33.992;18.480;2023-03-01T22:12:58;39.03;;;5.15;;
37379;SDS011;23252;-33.992;18.480;2023-03-01T22:15:25;39.33;;;6.60;;
37379;SDS011;23252;-33.992;18.480;2023-03-01T22:17:53;31.63;;;5.55;;
37379;SDS011;23252;-33.992;18.480;2023-03-01T22:20:19;29.20;;;5.50;;
37379;SDS011;23252;-33.992;18.480;2023-03-01T22:22:46;28.38;;;5.72;;
37379;SDS011;23252;-33.992;18.480;2023-03-01T22:25:12;24.45;;;4.75;;
37379;SDS011;23252;-33.992;18.480;2023-03-01T22:27:39;24.15;;;5.85;;
37379;SDS011;23252;-33.992;18.480;2023-03-01T22:30:07;24.40;;;5.60;;
37379;SDS011;23252;-33.992;18.480;2023-03-01T22:32:36;23.60;;;4.88;;
37379;SDS011;23252;-33.992;18.480;2023-03-01T22:35:03;27.67;;;6.13;;
37379;SDS011;23252;-33.992;18.480;2023-03-01T22:37:29;28.75;;;4.22;;
37379;SDS011;23252;-33.992;18.480;2023-03-01T22:39:56;28.35;;;5.80;;
37379;SDS011;23252;-33.992;18.480;2023-03-01T22:42:22;19.25;;;4.65;;
37379;SDS011;23252;-33.992;18.480;2023-03-01T22:44:49;29.77;;;5.18;;
37379;SDS011;23252;-33.992;18.480;2023-03-01T22:47:15;26.73;;;6.13;;
37379;SDS011;23252;-33.992;18.480;2023-03-01T22:49:42;24.30;;;6.30;;
37379;SDS011;23252;-33.992;18.480;2023-03-01T22:52:08;34.83;;;6.03;;
37379;SDS011;23252;-33.992;18.480;2023-03-01T22:54:35;21.45;;;4.88;;
37379;SDS011;23252;-33.992;18.480;2023-03-01T22:57:01;27.42;;;5.60;;